Cse Prosperity Expr. — 3EES5 — position and weather

sailwx.info

Track history (hours):
 
Tides and Currents Weather Stations Pressure Air Temp Water Temp Dewpoint Dewpoint Depression Visibility Wind Speed Wind Dir Waves Ship Positions

Cse Prosperity Expr.

Last reported at 2015-Mar-02 09:32 UTC. Time now 2015-Mar-05 00:23 UTC.
Position N 22°49' E 120°04'.

Length 168 m; draft 5.6 m.

Type: Cargo ship. MMSI: 371801000.

Date/timePositionNaut miles runAvg speedWind from/ knotsBaromVisibWave heightAir tempDewpointWater temp
2015-Mar-02 09:32N 22°49' E 120°04'1212.3
2015-Mar-02 08:33N 22°39' E 120°12'6 5.7
2015-Mar-02 07:26N 22°36' E 120°18'0 0.0
2015-Mar-02 06:32N 22°36' E 120°18'0 0.0
2015-Mar-02 05:32N 22°36' E 120°18'0 0.0
2015-Mar-02 04:32N 22°36' E 120°18'0 0.0
2015-Mar-02 03:32N 22°36' E 120°18'0 0.0
2015-Mar-02 02:32N 22°36' E 120°18'0 0.0
2015-Mar-02 01:32N 22°36' E 120°18'0 0.0
2015-Mar-02 00:32N 22°36' E 120°18'0 0.0
2015-Mar-01 23:26N 22°36' E 120°18'0 0.0
2015-Mar-01 22:32N 22°36' E 120°18'0 0.0
2015-Mar-01 21:32N 22°36' E 120°18'0 0.0
2015-Mar-01 20:32N 22°36' E 120°18'0 0.0
2015-Mar-01 19:32N 22°36' E 120°18'0 0.0
2015-Mar-01 18:32N 22°36' E 120°18'0 0.0
2015-Mar-01 17:32N 22°36' E 120°18'0 0.0
2015-Mar-01 16:32N 22°36' E 120°18'0 0.0
2015-Mar-01 15:32N 22°36' E 120°18'0 0.0
2015-Mar-01 14:32N 22°36' E 120°18'0 0.0
2015-Mar-01 13:32N 22°36' E 120°18'0 0.0
2015-Mar-01 12:32N 22°36' E 120°18'0 0.0
2015-Mar-01 11:32N 22°36' E 120°18'0 0.0
2015-Mar-01 10:32N 22°36' E 120°18'0 0.0
2015-Mar-01 09:26N 22°36' E 120°18'0 0.0
2015-Mar-01 08:32N 22°36' E 120°18'0 0.0
2015-Mar-01 07:32N 22°36' E 120°18'0 0.0
2015-Mar-01 06:26N 22°36' E 120°18'0 0.0
2015-Mar-01 05:32N 22°36' E 120°18'0 0.0
2015-Mar-01 04:08N 22°36' E 120°18'0 0.0
2015-Mar-01 03:32N 22°36' E 120°18'3 3.2
2015-Mar-01 02:33N 22°37' E 120°15'5 5.0
2015-Mar-01 01:33N 22°40' E 120°10'9 8.8
2015-Mar-01 00:33N 22°47' E 120°05'  
2015-Feb-25 07:15N 33°57' E 134°57'913.8
2015-Feb-25 06:33N 34°06' E 135°01'1010.1
2015-Feb-25 05:34N 34°14' E 135°07'0 0.2
2015-Feb-25 04:31N 34°14' E 135°07'0 0.0
2015-Feb-25 03:31N 34°14' E 135°07'0 0.0
2015-Feb-25 02:31N 34°14' E 135°07'0 0.0
2015-Feb-25 01:31N 34°14' E 135°07'0 0.0
2015-Feb-25 00:16N 34°14' E 135°07'0 0.0
2015-Feb-24 23:31N 34°14' E 135°07'0 0.0
2015-Feb-24 22:28N 34°14' E 135°07'0 0.0
2015-Feb-24 21:28N 34°14' E 135°07'0 0.0
2015-Feb-24 20:28N 34°14' E 135°07'0 0.0
2015-Feb-24 19:31N 34°14' E 135°07'0 0.0
2015-Feb-24 18:31N 34°14' E 135°07'0 0.0
2015-Feb-24 17:28N 34°14' E 135°07'0 0.0
2015-Feb-24 16:31N 34°14' E 135°07'0 0.0
2015-Feb-24 15:31N 34°14' E 135°07'0 0.0
2015-Feb-24 14:31N 34°14' E 135°07'0 0.0
2015-Feb-24 13:25N 34°14' E 135°07'0 0.0
2015-Feb-24 12:28N 34°14' E 135°07'0 0.0
2015-Feb-24 11:28N 34°14' E 135°07'0 0.0
2015-Feb-24 10:31N 34°14' E 135°07'0 0.0
2015-Feb-24 09:31N 34°14' E 135°07'0 0.0
2015-Feb-24 08:31N 34°14' E 135°07'0 0.0
2015-Feb-24 07:31N 34°14' E 135°07'0 0.0
2015-Feb-24 06:31N 34°14' E 135°07'0 0.0
2015-Feb-24 05:31N 34°14' E 135°07'0 0.0
2015-Feb-24 04:31N 34°14' E 135°07'0 0.0
2015-Feb-24 03:31N 34°14' E 135°07'0 0.0
2015-Feb-24 02:31N 34°14' E 135°07'0 0.0
2015-Feb-24 01:28N 34°14' E 135°07'0 0.0
2015-Feb-24 00:31N 34°14' E 135°07'0 0.0
2015-Feb-23 23:31N 34°14' E 135°07'0 0.0
2015-Feb-23 22:31N 34°14' E 135°07'0 0.0
2015-Feb-23 21:31N 34°14' E 135°07'0 0.0
2015-Feb-23 20:31N 34°14' E 135°07'0 0.0
2015-Feb-23 19:31N 34°14' E 135°07'0 0.0
2015-Feb-23 18:31N 34°14' E 135°07'0 0.0
2015-Feb-23 17:31N 34°14' E 135°07'0 0.0
2015-Feb-23 16:31N 34°14' E 135°07'0 0.0
2015-Feb-23 15:31N 34°14' E 135°07'0 0.0
2015-Feb-23 14:31N 34°14' E 135°07'0 0.0
2015-Feb-23 13:31N 34°14' E 135°07'0 0.0
2015-Feb-23 12:31N 34°14' E 135°07'0 0.0
2015-Feb-23 11:31N 34°14' E 135°07'0 0.0
2015-Feb-23 10:28N 34°14' E 135°07'0 0.0
2015-Feb-23 09:31N 34°14' E 135°07'0 0.0
2015-Feb-23 08:31N 34°14' E 135°07'0 0.0
2015-Feb-23 07:31N 34°14' E 135°07'0 0.0
2015-Feb-23 06:31N 34°14' E 135°07'0 0.0
2015-Feb-23 05:31N 34°14' E 135°07'0 0.0
2015-Feb-23 04:28N 34°14' E 135°07'0 0.0
2015-Feb-23 03:28N 34°14' E 135°07'0 0.0
2015-Feb-23 02:31N 34°14' E 135°07'0 0.0
2015-Feb-23 01:28N 34°14' E 135°07'0 0.0
2015-Feb-23 00:28N 34°14' E 135°07'0 0.0
2015-Feb-22 23:31N 34°14' E 135°07'0 0.0
2015-Feb-22 22:31N 34°14' E 135°07'0 0.0
2015-Feb-22 21:31N 34°14' E 135°07'0 0.0
2015-Feb-22 20:31N 34°14' E 135°07'0 0.0
2015-Feb-22 19:31N 34°14' E 135°07'0 0.0
2015-Feb-22 18:31N 34°14' E 135°07'0 0.0
2015-Feb-22 17:31N 34°14' E 135°07'0 0.0
2015-Feb-22 16:31N 34°14' E 135°07'0 0.0
2015-Feb-22 15:31N 34°14' E 135°07'0 0.0
2015-Feb-22 14:28N 34°14' E 135°07'0 0.0
2015-Feb-22 13:31N 34°14' E 135°07'0 0.0
2015-Feb-22 12:31N 34°14' E 135°07'0 0.0
2015-Feb-22 11:31N 34°14' E 135°07'0 0.0
2015-Feb-22 10:31N 34°14' E 135°07'0 0.0
2015-Feb-22 09:31N 34°14' E 135°07'0 0.0
2015-Feb-22 08:31N 34°14' E 135°07'0 0.0
2015-Feb-22 07:31N 34°14' E 135°07'0 0.0
2015-Feb-22 06:28N 34°14' E 135°07'0 0.0
2015-Feb-22 05:31N 34°14' E 135°07'0 0.0
2015-Feb-22 04:31N 34°14' E 135°07'0 0.0
2015-Feb-22 03:31N 34°14' E 135°07'0 0.0
2015-Feb-22 02:31N 34°14' E 135°07'0 0.0
2015-Feb-22 01:28N 34°14' E 135°07'0 0.0
2015-Feb-22 00:22N 34°14' E 135°07'0 0.0
2015-Feb-21 23:31N 34°14' E 135°07'0 0.0
2015-Feb-21 22:28N 34°14' E 135°07'0 0.0
2015-Feb-21 21:28N 34°14' E 135°07'0 0.0
2015-Feb-21 20:31N 34°14' E 135°07'0 0.0
2015-Feb-21 19:31N 34°14' E 135°07'0 0.0
2015-Feb-21 18:31N 34°14' E 135°07'0 0.0
2015-Feb-21 17:31N 34°14' E 135°07'0 0.0
2015-Feb-21 16:31N 34°14' E 135°07'0 0.0
2015-Feb-21 15:31N 34°14' E 135°07'0 0.0
2015-Feb-21 14:31N 34°14' E 135°07'0 0.0
2015-Feb-21 13:31N 34°14' E 135°07'0 0.0
2015-Feb-21 12:31N 34°14' E 135°07'0 0.0
2015-Feb-21 11:31N 34°14' E 135°07'0 0.0
2015-Feb-21 10:28N 34°14' E 135°07'0 0.0
2015-Feb-21 09:28N 34°14' E 135°07'0 0.0
2015-Feb-21 08:31N 34°14' E 135°07'0 0.0
2015-Feb-21 07:31N 34°14' E 135°07'0 0.0
2015-Feb-21 06:31N 34°14' E 135°07'0 0.0
2015-Feb-21 05:31N 34°14' E 135°07'0 0.0
2015-Feb-21 04:31N 34°14' E 135°07'0 0.0
2015-Feb-21 03:28N 34°14' E 135°07'0 0.0
2015-Feb-21 02:25N 34°14' E 135°07'0 0.0
2015-Feb-21 01:31N 34°14' E 135°07'0 0.0
2015-Feb-21 00:22N 34°14' E 135°07'2 2.2
2015-Feb-20 23:28N 34°14' E 135°05'0 0.0
2015-Feb-20 22:31N 34°14' E 135°05'0 0.0
2015-Feb-20 21:31N 34°14' E 135°05'0 0.0
2015-Feb-20 20:28N 34°14' E 135°05'0 0.0
2015-Feb-20 19:31N 34°14' E 135°05'0 0.0
2015-Feb-20 18:31N 34°14' E 135°05'0 0.0
2015-Feb-20 17:28N 34°14' E 135°05'0 0.0
2015-Feb-20 16:31N 34°14' E 135°05'0 0.0
2015-Feb-20 15:31N 34°14' E 135°05'0 0.1
2015-Feb-20 14:31N 34°14' E 135°05'0 0.1
2015-Feb-20 13:31N 34°14' E 135°05'0 0.0
2015-Feb-20 12:31N 34°14' E 135°05'0 0.0
2015-Feb-20 11:31N 34°14' E 135°05'0 0.0
2015-Feb-20 10:31N 34°14' E 135°05'  
Track history (hours):
 
Tides and Currents Weather Stations Pressure Air Temp Water Temp Dewpoint Dewpoint Depression Visibility Wind Speed Wind Dir Waves Ship Positions

Cse Prosperity Expr.

Last reported at 2015-Mar-02 09:32 UTC. Time now 2015-Mar-05 00:23 UTC.
Position N 22°49' E 120°04'.

Length 168 m; draft 5.6 m.

Type: Cargo ship. MMSI: 371801000.

Date/timePositionNaut miles runAvg speedWind from/ knotsBaromVisibWave heightAir tempDewpointWater temp
2015-Mar-02 09:32N 22°49' E 120°04'1212.3
2015-Mar-02 08:33N 22°39' E 120°12'6 5.7
2015-Mar-02 07:26N 22°36' E 120°18'0 0.0
2015-Mar-02 06:32N 22°36' E 120°18'0 0.0
2015-Mar-02 05:32N 22°36' E 120°18'0 0.0
2015-Mar-02 04:32N 22°36' E 120°18'0 0.0
2015-Mar-02 03:32N 22°36' E 120°18'0 0.0
2015-Mar-02 02:32N 22°36' E 120°18'0 0.0
2015-Mar-02 01:32N 22°36' E 120°18'0 0.0
2015-Mar-02 00:32N 22°36' E 120°18'0 0.0
2015-Mar-01 23:26N 22°36' E 120°18'0 0.0
2015-Mar-01 22:32N 22°36' E 120°18'0 0.0
2015-Mar-01 21:32N 22°36' E 120°18'0 0.0
2015-Mar-01 20:32N 22°36' E 120°18'0 0.0
2015-Mar-01 19:32N 22°36' E 120°18'0 0.0
2015-Mar-01 18:32N 22°36' E 120°18'0 0.0
2015-Mar-01 17:32N 22°36' E 120°18'0 0.0
2015-Mar-01 16:32N 22°36' E 120°18'0 0.0
2015-Mar-01 15:32N 22°36' E 120°18'0 0.0
2015-Mar-01 14:32N 22°36' E 120°18'0 0.0
2015-Mar-01 13:32N 22°36' E 120°18'0 0.0
2015-Mar-01 12:32N 22°36' E 120°18'0 0.0
2015-Mar-01 11:32N 22°36' E 120°18'0 0.0
2015-Mar-01 10:32N 22°36' E 120°18'0 0.0
2015-Mar-01 09:26N 22°36' E 120°18'0 0.0
2015-Mar-01 08:32N 22°36' E 120°18'0 0.0
2015-Mar-01 07:32N 22°36' E 120°18'0 0.0
2015-Mar-01 06:26N 22°36' E 120°18'0 0.0
2015-Mar-01 05:32N 22°36' E 120°18'0 0.0
2015-Mar-01 04:08N 22°36' E 120°18'0 0.0
2015-Mar-01 03:32N 22°36' E 120°18'3 3.2
2015-Mar-01 02:33N 22°37' E 120°15'5 5.0
2015-Mar-01 01:33N 22°40' E 120°10'9 8.8
2015-Mar-01 00:33N 22°47' E 120°05'  
2015-Feb-25 07:15N 33°57' E 134°57'913.8
2015-Feb-25 06:33N 34°06' E 135°01'1010.1
2015-Feb-25 05:34N 34°14' E 135°07'0 0.2
2015-Feb-25 04:31N 34°14' E 135°07'0 0.0
2015-Feb-25 03:31N 34°14' E 135°07'0 0.0
2015-Feb-25 02:31N 34°14' E 135°07'0 0.0
2015-Feb-25 01:31N 34°14' E 135°07'0 0.0
2015-Feb-25 00:16N 34°14' E 135°07'0 0.0
2015-Feb-24 23:31N 34°14' E 135°07'0 0.0
2015-Feb-24 22:28N 34°14' E 135°07'0 0.0
2015-Feb-24 21:28N 34°14' E 135°07'0 0.0
2015-Feb-24 20:28N 34°14' E 135°07'0 0.0
2015-Feb-24 19:31N 34°14' E 135°07'0 0.0
2015-Feb-24 18:31N 34°14' E 135°07'0 0.0
2015-Feb-24 17:28N 34°14' E 135°07'0 0.0
2015-Feb-24 16:31N 34°14' E 135°07'0 0.0
2015-Feb-24 15:31N 34°14' E 135°07'0 0.0
2015-Feb-24 14:31N 34°14' E 135°07'0 0.0
2015-Feb-24 13:25N 34°14' E 135°07'0 0.0
2015-Feb-24 12:28N 34°14' E 135°07'0 0.0
2015-Feb-24 11:28N 34°14' E 135°07'0 0.0
2015-Feb-24 10:31N 34°14' E 135°07'0 0.0
2015-Feb-24 09:31N 34°14' E 135°07'0 0.0
2015-Feb-24 08:31N 34°14' E 135°07'0 0.0
2015-Feb-24 07:31N 34°14' E 135°07'0 0.0
2015-Feb-24 06:31N 34°14' E 135°07'0 0.0
2015-Feb-24 05:31N 34°14' E 135°07'0 0.0
2015-Feb-24 04:31N 34°14' E 135°07'0 0.0
2015-Feb-24 03:31N 34°14' E 135°07'0 0.0
2015-Feb-24 02:31N 34°14' E 135°07'0 0.0
2015-Feb-24 01:28N 34°14' E 135°07'0 0.0
2015-Feb-24 00:31N 34°14' E 135°07'0 0.0
2015-Feb-23 23:31N 34°14' E 135°07'0 0.0
2015-Feb-23 22:31N 34°14' E 135°07'0 0.0
2015-Feb-23 21:31N 34°14' E 135°07'0 0.0
2015-Feb-23 20:31N 34°14' E 135°07'0 0.0
2015-Feb-23 19:31N 34°14' E 135°07'0 0.0
2015-Feb-23 18:31N 34°14' E 135°07'0 0.0
2015-Feb-23 17:31N 34°14' E 135°07'0 0.0
2015-Feb-23 16:31N 34°14' E 135°07'0 0.0
2015-Feb-23 15:31N 34°14' E 135°07'0 0.0
2015-Feb-23 14:31N 34°14' E 135°07'0 0.0
2015-Feb-23 13:31N 34°14' E 135°07'0 0.0
2015-Feb-23 12:31N 34°14' E 135°07'0 0.0
2015-Feb-23 11:31N 34°14' E 135°07'0 0.0
2015-Feb-23 10:28N 34°14' E 135°07'0 0.0
2015-Feb-23 09:31N 34°14' E 135°07'0 0.0
2015-Feb-23 08:31N 34°14' E 135°07'0 0.0
2015-Feb-23 07:31N 34°14' E 135°07'0 0.0
2015-Feb-23 06:31N 34°14' E 135°07'0 0.0
2015-Feb-23 05:31N 34°14' E 135°07'0 0.0
2015-Feb-23 04:28N 34°14' E 135°07'0 0.0
2015-Feb-23 03:28N 34°14' E 135°07'0 0.0
2015-Feb-23 02:31N 34°14' E 135°07'0 0.0
2015-Feb-23 01:28N 34°14' E 135°07'0 0.0
2015-Feb-23 00:28N 34°14' E 135°07'0 0.0
2015-Feb-22 23:31N 34°14' E 135°07'0 0.0
2015-Feb-22 22:31N 34°14' E 135°07'0 0.0
2015-Feb-22 21:31N 34°14' E 135°07'0 0.0
2015-Feb-22 20:31N 34°14' E 135°07'0 0.0
2015-Feb-22 19:31N 34°14' E 135°07'0 0.0
2015-Feb-22 18:31N 34°14' E 135°07'0 0.0
2015-Feb-22 17:31N 34°14' E 135°07'0 0.0
2015-Feb-22 16:31N 34°14' E 135°07'0 0.0
2015-Feb-22 15:31N 34°14' E 135°07'0 0.0
2015-Feb-22 14:28N 34°14' E 135°07'0 0.0
2015-Feb-22 13:31N 34°14' E 135°07'0 0.0
2015-Feb-22 12:31N 34°14' E 135°07'0 0.0
2015-Feb-22 11:31N 34°14' E 135°07'0 0.0
2015-Feb-22 10:31N 34°14' E 135°07'0 0.0
2015-Feb-22 09:31N 34°14' E 135°07'0 0.0
2015-Feb-22 08:31N 34°14' E 135°07'0 0.0
2015-Feb-22 07:31N 34°14' E 135°07'0 0.0
2015-Feb-22 06:28N 34°14' E 135°07'0 0.0
2015-Feb-22 05:31N 34°14' E 135°07'0 0.0
2015-Feb-22 04:31N 34°14' E 135°07'0 0.0
2015-Feb-22 03:31N 34°14' E 135°07'0 0.0
2015-Feb-22 02:31N 34°14' E 135°07'0 0.0
2015-Feb-22 01:28N 34°14' E 135°07'0 0.0
2015-Feb-22 00:22N 34°14' E 135°07'0 0.0
2015-Feb-21 23:31N 34°14' E 135°07'0 0.0
2015-Feb-21 22:28N 34°14' E 135°07'0 0.0
2015-Feb-21 21:28N 34°14' E 135°07'0 0.0
2015-Feb-21 20:31N 34°14' E 135°07'0 0.0
2015-Feb-21 19:31N 34°14' E 135°07'0 0.0
2015-Feb-21 18:31N 34°14' E 135°07'0 0.0
2015-Feb-21 17:31N 34°14' E 135°07'0 0.0
2015-Feb-21 16:31N 34°14' E 135°07'0 0.0
2015-Feb-21 15:31N 34°14' E 135°07'0 0.0
2015-Feb-21 14:31N 34°14' E 135°07'0 0.0
2015-Feb-21 13:31N 34°14' E 135°07'0 0.0
2015-Feb-21 12:31N 34°14' E 135°07'0 0.0
2015-Feb-21 11:31N 34°14' E 135°07'0 0.0
2015-Feb-21 10:28N 34°14' E 135°07'0 0.0
2015-Feb-21 09:28N 34°14' E 135°07'0 0.0
2015-Feb-21 08:31N 34°14' E 135°07'0 0.0
2015-Feb-21 07:31N 34°14' E 135°07'0 0.0
2015-Feb-21 06:31N 34°14' E 135°07'0 0.0
2015-Feb-21 05:31N 34°14' E 135°07'0 0.0
2015-Feb-21 04:31N 34°14' E 135°07'0 0.0
2015-Feb-21 03:28N 34°14' E 135°07'0 0.0
2015-Feb-21 02:25N 34°14' E 135°07'0 0.0
2015-Feb-21 01:31N 34°14' E 135°07'0 0.0
2015-Feb-21 00:22N 34°14' E 135°07'2 2.2
2015-Feb-20 23:28N 34°14' E 135°05'0 0.0
2015-Feb-20 22:31N 34°14' E 135°05'0 0.0
2015-Feb-20 21:31N 34°14' E 135°05'0 0.0
2015-Feb-20 20:28N 34°14' E 135°05'0 0.0
2015-Feb-20 19:31N 34°14' E 135°05'0 0.0
2015-Feb-20 18:31N 34°14' E 135°05'0 0.0
2015-Feb-20 17:28N 34°14' E 135°05'0 0.0
2015-Feb-20 16:31N 34°14' E 135°05'0 0.0
2015-Feb-20 15:31N 34°14' E 135°05'0 0.1
2015-Feb-20 14:31N 34°14' E 135°05'0 0.1
2015-Feb-20 13:31N 34°14' E 135°05'0 0.0
2015-Feb-20 12:31N 34°14' E 135°05'0 0.0
2015-Feb-20 11:31N 34°14' E 135°05'0 0.0
2015-Feb-20 10:31N 34°14' E 135°05'  

Dump ship's entire track history